createdAt,value
2022-10-22T00:00:09.558Z,8.93
2022-10-22T00:00:31.316Z,9.02
2022-10-22T00:00:53.197Z,9.27
2022-10-22T00:01:15.006Z,8.20
2022-10-22T00:01:39.454Z,9.15
2022-10-22T00:02:01.310Z,10.40
2022-10-22T00:02:23.293Z,9.57
2022-10-22T00:02:45.277Z,9.77
2022-10-22T00:03:07.106Z,10.95
2022-10-22T00:03:29.011Z,8.88
2022-10-22T00:03:50.880Z,10.30
2022-10-22T00:04:12.596Z,9.60
2022-10-22T00:04:35.789Z,11.52
2022-10-22T00:04:57.741Z,11.32
2022-10-22T00:05:19.598Z,11.73
2022-10-22T00:05:41.361Z,12.95
2022-10-22T00:06:03.289Z,9.88
2022-10-22T00:06:25.420Z,10.60
2022-10-22T00:06:47.344Z,10.35
2022-10-22T00:07:09.053Z,11.32
2022-10-22T00:07:30.919Z,9.50
2022-10-22T00:07:52.625Z,9.73
2022-10-22T00:08:14.386Z,8.45
2022-10-22T00:08:36.266Z,9.80
2022-10-22T00:08:58.083Z,10.25
2022-10-22T00:09:19.996Z,9.02
2022-10-22T00:09:41.964Z,8.87
2022-10-22T00:10:05.614Z,9.05
2022-10-22T00:10:27.502Z,9.68
2022-10-22T00:10:49.392Z,9.20
2022-10-22T00:11:13.488Z,8.98
2022-10-22T00:12:11.388Z,8.80
2022-10-22T00:12:33.151Z,9.70
2022-10-22T00:12:54.991Z,8.55
2022-10-22T00:13:17.343Z,10.20
2022-10-22T00:13:39.526Z,10.93
2022-10-22T00:14:01.282Z,10.70
2022-10-22T00:14:23.056Z,10.85
2022-10-22T00:14:44.823Z,11.48
2022-10-22T00:15:07.118Z,9.88
2022-10-22T00:15:28.873Z,10.50
2022-10-22T00:15:50.612Z,10.02
2022-10-22T00:16:12.946Z,10.57
2022-10-22T00:16:34.652Z,10.20
2022-10-22T00:16:56.452Z,9.05
2022-10-22T00:17:18.201Z,9.82
2022-10-22T00:17:42.613Z,9.27
2022-10-22T00:18:04.709Z,10.73
2022-10-22T00:18:26.453Z,8.70
2022-10-22T00:18:48.235Z,9.02
2022-10-22T00:19:11.120Z,9.93
2022-10-22T00:19:32.880Z,11.43
2022-10-22T00:19:54.571Z,11.07
2022-10-22T00:20:17.236Z,9.65
2022-10-22T00:20:39.168Z,9.48
2022-10-22T00:21:01.157Z,12.00
2022-10-22T00:21:22.878Z,9.73
2022-10-22T00:21:44.652Z,8.63
2022-10-22T00:22:06.996Z,10.57
2022-10-22T00:22:29.886Z,8.90
2022-10-22T00:23:18.246Z,11.13
2022-10-22T00:23:43.578Z,9.98
2022-10-22T00:24:05.499Z,9.13
2022-10-22T00:24:27.258Z,8.93
2022-10-22T00:24:50.883Z,9.43
2022-10-22T00:25:12.597Z,10.10
2022-10-22T00:25:35.866Z,9.73
2022-10-22T00:25:57.874Z,10.02
2022-10-22T00:26:19.632Z,11.73
2022-10-22T00:26:41.404Z,10.73
2022-10-22T00:27:04.431Z,11.25
2022-10-22T00:27:26.167Z,9.85
2022-10-22T00:27:47.904Z,8.20
2022-10-22T00:28:11.489Z,9.68
2022-10-22T00:28:33.211Z,8.80
2022-10-22T00:28:55.275Z,9.90
2022-10-22T00:29:21.004Z,10.13
2022-10-22T00:29:42.799Z,11.05
2022-10-22T00:30:05.590Z,10.05
2022-10-22T00:30:27.332Z,9.60
2022-10-22T00:30:49.122Z,10.73
2022-10-22T00:31:10.918Z,10.45
2022-10-22T00:31:32.645Z,9.45
2022-10-22T00:32:16.533Z,8.73
2022-10-22T00:32:38.928Z,10.32
2022-10-22T00:33:00.854Z,11.88
2022-10-22T00:33:22.711Z,11.30
2022-10-22T00:33:46.935Z,9.05
2022-10-22T00:34:09.745Z,9.73
2022-10-22T00:34:31.664Z,11.25
2022-10-22T00:34:53.399Z,10.43
2022-10-22T00:35:17.508Z,10.93
2022-10-22T00:35:40.960Z,10.55
2022-10-22T00:36:02.707Z,10.00
2022-10-22T00:36:24.493Z,9.77
2022-10-22T00:36:47.410Z,9.35
2022-10-22T00:37:10.167Z,10.00
2022-10-22T00:37:31.936Z,9.07
2022-10-22T00:37:53.687Z,12.38
2022-10-22T00:38:15.995Z,12.23
2022-10-22T00:38:37.717Z,11.32
2022-10-22T00:38:59.583Z,12.07
2022-10-22T00:39:23.808Z,12.00
2022-10-22T00:39:45.590Z,10.05
2022-10-22T00:40:09.097Z,10.05
2022-10-22T00:40:31.628Z,10.65
2022-10-22T00:40:53.386Z,10.70
2022-10-22T00:41:15.120Z,11.52
2022-10-22T00:41:36.893Z,11.18
2022-10-22T00:41:59.436Z,9.73
2022-10-22T00:42:27.330Z,11.48
2022-10-22T00:42:49.963Z,9.38
2022-10-22T00:43:17.341Z,10.65
2022-10-22T00:44:04.257Z,9.93
2022-10-22T00:45:00.081Z,10.15
2022-10-22T00:45:25.354Z,9.90
2022-10-22T00:45:47.337Z,11.48
2022-10-22T00:46:09.282Z,11.00
2022-10-22T00:46:31.280Z,11.30
2022-10-22T00:46:53.034Z,9.35
2022-10-22T00:47:16.773Z,11.32
2022-10-22T00:47:44.217Z,10.57
2022-10-22T00:48:12.965Z,11.43
2022-10-22T00:48:34.783Z,9.10
2022-10-22T00:48:59.671Z,10.15
2022-10-22T00:49:21.603Z,11.07
2022-10-22T00:49:44.762Z,9.82
2022-10-22T00:50:11.170Z,10.18
2022-10-22T00:50:41.454Z,9.63
2022-10-22T00:51:08.802Z,10.25
2022-10-22T00:51:33.707Z,10.10
2022-10-22T00:51:55.455Z,11.48
2022-10-22T00:52:17.225Z,10.10
2022-10-22T00:52:39.811Z,9.10
2022-10-22T00:53:04.384Z,10.15
2022-10-22T00:53:32.871Z,8.35
2022-10-22T00:54:00.236Z,10.88
2022-10-22T00:54:21.983Z,9.82
2022-10-22T00:54:45.042Z,10.55
2022-10-22T00:55:09.707Z,10.20
2022-10-22T00:55:34.356Z,10.77
2022-10-22T00:55:56.283Z,9.55
2022-10-22T00:56:18.058Z,8.73
2022-10-22T00:56:39.897Z,10.07
2022-10-22T00:57:01.863Z,9.02
2022-10-22T00:57:23.835Z,8.57
2022-10-22T00:57:46.582Z,9.70
2022-10-22T00:58:08.578Z,10.25
2022-10-22T00:58:36.406Z,10.25
2022-10-22T00:59:00.608Z,9.13
2022-10-22T00:59:23.274Z,11.45
2022-10-22T00:59:46.752Z,12.20
2022-10-22T01:00:10.292Z,11.63
2022-10-22T01:00:32.192Z,9.15
2022-10-22T01:00:55.194Z,9.90
2022-10-22T01:01:21.663Z,8.85
2022-10-22T01:01:45.540Z,9.70
2022-10-22T01:02:07.273Z,9.77
2022-10-22T01:02:29.072Z,8.68
2022-10-22T01:02:52.514Z,10.70
2022-10-22T01:03:14.476Z,10.20
2022-10-22T01:03:36.374Z,9.40
2022-10-22T01:03:58.548Z,9.18
2022-10-22T01:04:21.002Z,9.63
2022-10-22T01:04:43.028Z,10.57
2022-10-22T01:05:05.333Z,10.57
2022-10-22T01:05:30.742Z,9.60
2022-10-22T01:06:04.961Z,9.63
2022-10-22T01:06:45.297Z,9.35
2022-10-22T01:07:07.210Z,8.30
2022-10-22T01:07:29.241Z,9.55
2022-10-22T01:07:53.070Z,10.13
2022-10-22T01:08:26.084Z,9.95
2022-10-22T01:09:15.419Z,9.65
2022-10-22T01:09:50.293Z,10.75
2022-10-22T01:10:25.073Z,8.00
2022-10-22T01:10:58.676Z,8.20
2022-10-22T01:11:51.018Z,9.05
2022-10-22T01:12:16.943Z,9.85
2022-10-22T01:13:00.015Z,9.02
2022-10-22T01:13:25.449Z,9.05
2022-10-22T01:14:10.282Z,9.65
2022-10-22T01:14:39.625Z,9.30
2022-10-22T01:15:18.089Z,10.30
2022-10-22T01:15:57.925Z,9.90
2022-10-22T01:16:34.686Z,9.32
2022-10-22T01:17:14.316Z,9.88
2022-10-22T01:18:29.143Z,12.10
2022-10-22T01:19:17.997Z,9.52
2022-10-22T01:19:57.579Z,9.27
2022-10-22T01:20:25.659Z,9.88
2022-10-22T01:20:54.546Z,10.30
2022-10-22T01:21:31.434Z,11.35
2022-10-22T01:21:59.527Z,10.50
2022-10-22T01:22:39.258Z,8.98
2022-10-22T01:23:16.130Z,9.00
2022-10-22T01:24:09.725Z,12.63
2022-10-22T01:24:58.942Z,10.35
2022-10-22T01:25:29.953Z,10.02
2022-10-22T01:26:06.324Z,9.88
2022-10-22T01:27:09.815Z,8.90
2022-10-22T01:27:46.602Z,9.57
2022-10-22T01:28:20.719Z,10.93
2022-10-22T01:28:49.513Z,9.00
2022-10-22T01:29:17.325Z,10.50
2022-10-22T01:29:42.416Z,10.50
2022-10-22T01:30:07.383Z,9.57
2022-10-22T01:30:29.478Z,10.18
2022-10-22T01:30:54.521Z,9.02
2022-10-22T01:31:18.123Z,9.70
2022-10-22T01:31:49.566Z,8.65
2022-10-22T01:32:24.198Z,10.80
2022-10-22T01:33:03.104Z,8.30
2022-10-22T01:33:28.171Z,10.00
2022-10-22T01:33:53.276Z,10.68
2022-10-22T01:34:18.248Z,9.90
2022-10-22T01:34:43.038Z,10.25
2022-10-22T01:35:09.001Z,9.82
2022-10-22T01:35:38.111Z,8.20
2022-10-22T01:36:00.162Z,9.07
2022-10-22T01:36:22.256Z,12.60
2022-10-22T01:36:46.572Z,11.20
2022-10-22T01:37:10.502Z,10.38
2022-10-22T01:37:37.209Z,10.57
2022-10-22T01:38:04.037Z,11.00
2022-10-22T01:38:27.015Z,9.63
2022-10-22T01:38:50.054Z,9.80
2022-10-22T01:39:23.637Z,9.43
2022-10-22T01:39:47.545Z,11.23
2022-10-22T01:40:10.780Z,11.95
2022-10-22T01:40:33.957Z,11.38
2022-10-22T01:40:56.588Z,9.38
2022-10-22T01:41:18.971Z,9.27
2022-10-22T01:41:45.276Z,9.50
2022-10-22T01:42:40.445Z,10.48
2022-10-22T01:43:08.165Z,9.43
2022-10-22T01:43:29.874Z,9.48
2022-10-22T01:43:53.396Z,10.10
2022-10-22T01:44:37.244Z,9.07
2022-10-22T01:44:59.354Z,10.52
2022-10-22T01:45:21.126Z,9.35
2022-10-22T01:45:47.652Z,10.43
2022-10-22T01:46:11.931Z,9.73
2022-10-22T01:46:34.104Z,11.98
2022-10-22T01:47:28.731Z,10.45
2022-10-22T01:48:08.860Z,10.40
2022-10-22T01:48:55.505Z,10.60
2022-10-22T01:49:29.666Z,11.38
2022-10-22T01:50:30.870Z,8.60
2022-10-22T01:51:24.716Z,10.10
2022-10-22T01:52:02.645Z,8.23
2022-10-22T01:52:46.109Z,9.80
2022-10-22T01:53:35.824Z,9.70
2022-10-22T01:54:05.007Z,8.90
2022-10-22T01:54:32.567Z,8.55
2022-10-22T01:55:08.323Z,10.60
2022-10-22T01:55:49.794Z,8.85
2022-10-22T01:56:29.431Z,9.40
2022-10-22T01:57:12.909Z,9.20
2022-10-22T01:57:55.259Z,9.90
2022-10-22T01:58:22.754Z,9.88
2022-10-22T01:59:35.897Z,11.38
2022-10-22T02:00:09.578Z,10.35
2022-10-22T02:00:31.579Z,10.20
2022-10-22T02:01:03.211Z,10.32
2022-10-22T02:01:40.904Z,9.35
2022-10-22T02:02:34.142Z,10.57
2022-10-22T02:03:18.669Z,9.88
2022-10-22T02:04:17.638Z,8.30
2022-10-22T02:04:48.517Z,12.63
2022-10-22T02:05:13.127Z,10.18
2022-10-22T02:05:48.677Z,8.98
2022-10-22T02:06:17.674Z,8.52
2022-10-22T02:06:41.624Z,9.40
2022-10-22T02:07:07.522Z,8.82
2022-10-22T02:07:48.120Z,9.98
2022-10-22T02:08:13.814Z,9.98
2022-10-22T02:08:36.493Z,8.60
2022-10-22T02:09:02.890Z,10.40
2022-10-22T02:09:27.375Z,9.82
2022-10-22T02:09:51.906Z,9.25
2022-10-22T02:10:14.272Z,7.05
2022-10-22T02:10:42.427Z,7.53
2022-10-22T02:11:06.127Z,9.68
2022-10-22T02:11:28.017Z,8.27
2022-10-22T02:11:50.482Z,9.82
2022-10-22T02:12:13.869Z,12.73
2022-10-22T02:12:36.068Z,11.93
2022-10-22T02:12:59.917Z,8.27
2022-10-22T02:13:27.178Z,8.15
2022-10-22T02:13:55.194Z,9.93
2022-10-22T02:14:19.075Z,8.20
2022-10-22T02:14:44.121Z,9.27
2022-10-22T02:15:06.702Z,8.82
2022-10-22T02:15:32.958Z,9.18
2022-10-22T02:15:56.956Z,9.98
2022-10-22T02:16:36.380Z,9.38
2022-10-22T02:17:00.019Z,8.73
2022-10-22T02:17:22.712Z,9.45
2022-10-22T02:17:46.605Z,9.85
2022-10-22T02:18:09.865Z,8.55
2022-10-22T02:18:36.359Z,10.23
2022-10-22T02:19:06.077Z,8.32
2022-10-22T02:19:46.410Z,9.45
2022-10-22T02:20:20.293Z,8.27
2022-10-22T02:20:42.696Z,10.63
2022-10-22T02:21:05.812Z,10.00
2022-10-22T02:21:28.344Z,10.15
2022-10-22T02:21:51.587Z,8.95
2022-10-22T02:22:13.658Z,9.57
2022-10-22T02:22:37.055Z,9.40
2022-10-22T02:23:02.279Z,8.63
2022-10-22T02:23:24.135Z,7.72
2022-10-22T02:23:47.011Z,9.25
2022-10-22T02:24:09.233Z,10.05
2022-10-22T02:24:31.537Z,9.77
2022-10-22T02:24:53.672Z,9.43
2022-10-22T02:25:16.491Z,10.23
2022-10-22T02:25:45.732Z,9.93
2022-10-22T02:26:16.373Z,8.57
2022-10-22T02:26:44.809Z,9.30
2022-10-22T02:27:25.885Z,8.80
2022-10-22T02:27:58.374Z,8.40
2022-10-22T02:28:27.376Z,9.68
2022-10-22T02:29:16.420Z,8.77
2022-10-22T02:29:43.560Z,8.82
2022-10-22T02:30:46.041Z,10.20
2022-10-22T02:31:16.934Z,9.50
2022-10-22T02:31:41.857Z,10.13
2022-10-22T02:32:05.899Z,8.70
2022-10-22T02:32:43.039Z,9.40
2022-10-22T02:33:11.638Z,8.60
2022-10-22T02:33:43.725Z,9.45
2022-10-22T02:34:12.298Z,8.15
2022-10-22T02:34:34.232Z,8.45
2022-10-22T02:34:57.323Z,9.55
2022-10-22T02:35:23.027Z,9.18
2022-10-22T02:35:45.461Z,9.60
2022-10-22T02:36:08.452Z,10.82
2022-10-22T02:36:31.571Z,11.07
2022-10-22T02:36:54.488Z,8.38
2022-10-22T02:37:17.302Z,9.73
2022-10-22T02:37:40.333Z,8.73
2022-10-22T02:38:03.371Z,9.48
2022-10-22T02:38:26.846Z,11.88
2022-10-22T02:38:51.022Z,8.80
2022-10-22T02:39:42.688Z,8.88
2022-10-22T02:40:05.283Z,8.88
2022-10-22T02:40:28.499Z,8.15
2022-10-22T02:40:50.383Z,8.95
2022-10-22T02:41:12.156Z,10.82
2022-10-22T02:41:34.384Z,9.07
2022-10-22T02:41:57.976Z,8.18
2022-10-22T02:42:19.815Z,8.50
2022-10-22T02:42:42.955Z,8.23
2022-10-22T02:43:05.970Z,8.45
2022-10-22T02:43:29.595Z,8.45
2022-10-22T02:43:54.536Z,9.40
2022-10-22T02:44:21.056Z,8.90
2022-10-22T02:44:43.852Z,9.20
2022-10-22T02:45:06.312Z,10.48
2022-10-22T02:45:28.064Z,8.93
2022-10-22T02:45:51.282Z,8.10
2022-10-22T02:46:13.462Z,8.90
2022-10-22T02:46:36.454Z,8.45
2022-10-22T02:46:59.121Z,8.82
2022-10-22T02:47:21.585Z,7.53
2022-10-22T02:47:43.518Z,9.52
2022-10-22T02:48:05.658Z,9.30
2022-10-22T02:48:28.029Z,10.13
2022-10-22T02:48:49.776Z,9.55
2022-10-22T02:49:11.507Z,8.57
2022-10-22T02:49:33.238Z,8.38
2022-10-22T02:49:54.975Z,7.85
2022-10-22T02:50:16.842Z,7.68
2022-10-22T02:50:38.607Z,9.45
2022-10-22T02:51:00.314Z,9.43
2022-10-22T02:51:22.139Z,8.75
2022-10-22T02:51:43.852Z,8.18
2022-10-22T02:52:05.700Z,10.13
2022-10-22T02:52:27.408Z,10.18
2022-10-22T02:52:49.267Z,10.63
2022-10-22T02:53:10.977Z,10.10
2022-10-22T02:53:32.811Z,7.03
2022-10-22T02:53:54.571Z,8.32
2022-10-22T02:54:16.888Z,9.40
2022-10-22T02:54:38.629Z,9.43
2022-10-22T02:55:00.351Z,10.13
2022-10-22T02:55:22.098Z,8.43
2022-10-22T02:55:43.830Z,7.30
2022-10-22T02:56:05.929Z,7.60
2022-10-22T02:56:27.677Z,9.43
2022-10-22T02:56:49.386Z,7.85
2022-10-22T02:57:11.239Z,7.32
2022-10-22T02:57:33.119Z,9.85
2022-10-22T02:57:54.974Z,8.45
2022-10-22T02:58:18.765Z,8.65
2022-10-22T02:58:40.544Z,9.27
2022-10-22T02:59:03.319Z,9.13
2022-10-22T02:59:25.198Z,9.60
2022-10-22T02:59:46.993Z,11.63
2022-10-22T03:00:11.012Z,8.50
2022-10-22T03:00:32.783Z,7.35
2022-10-22T03:00:56.310Z,8.27
2022-10-22T03:01:18.135Z,8.82
2022-10-22T03:01:39.876Z,9.45
2022-10-22T03:02:01.654Z,8.45
2022-10-22T03:02:23.387Z,8.40
2022-10-22T03:02:45.297Z,9.38
2022-10-22T03:03:07.012Z,10.38
2022-10-22T03:03:28.841Z,7.90
2022-10-22T03:03:50.592Z,10.55
2022-10-22T03:04:12.319Z,11.82
2022-10-22T03:04:34.059Z,11.40
2022-10-22T03:04:55.791Z,8.15
2022-10-22T03:05:17.627Z,8.63
2022-10-22T03:05:39.365Z,9.27
2022-10-22T03:06:01.127Z,8.32
2022-10-22T03:06:22.918Z,10.68
2022-10-22T03:06:48.726Z,9.10
2022-10-22T03:07:10.867Z,8.02
2022-10-22T03:07:33.329Z,8.00
2022-10-22T03:07:55.439Z,8.45
2022-10-22T03:08:17.496Z,7.78
2022-10-22T03:08:39.289Z,7.03
2022-10-22T03:09:01.126Z,8.27
2022-10-22T03:09:24.837Z,9.35
2022-10-22T03:09:47.062Z,11.25
2022-10-22T03:10:09.254Z,10.10
2022-10-22T03:10:31.029Z,7.95
2022-10-22T03:10:53.898Z,9.18
2022-10-22T03:11:15.653Z,10.43
2022-10-22T03:11:37.556Z,8.32
2022-10-22T03:11:59.373Z,7.88
2022-10-22T03:12:21.164Z,9.50
2022-10-22T03:12:43.018Z,9.70
2022-10-22T03:13:04.781Z,10.35
2022-10-22T03:13:26.499Z,8.98
2022-10-22T03:13:48.257Z,9.57
2022-10-22T03:14:09.985Z,9.75
2022-10-22T03:14:31.672Z,12.40
2022-10-22T03:14:53.361Z,7.95
2022-10-22T03:15:15.676Z,10.25
2022-10-22T03:15:37.457Z,9.23
2022-10-22T03:15:59.375Z,7.40
2022-10-22T03:16:21.093Z,8.68
2022-10-22T03:16:45.187Z,9.18
2022-10-22T03:17:07.006Z,8.40
2022-10-22T03:17:28.768Z,7.93
2022-10-22T03:17:50.770Z,9.85
2022-10-22T03:18:12.547Z,7.53
2022-10-22T03:18:34.331Z,7.55
2022-10-22T03:18:56.073Z,9.52
2022-10-22T03:19:17.918Z,9.30
2022-10-22T03:19:39.689Z,8.48
2022-10-22T03:20:01.388Z,7.93
2022-10-22T03:20:23.123Z,7.63
2022-10-22T03:20:44.857Z,10.38
2022-10-22T03:21:28.091Z,7.90
2022-10-22T03:21:55.140Z,7.65
2022-10-22T03:22:27.185Z,9.43
2022-10-22T03:22:50.025Z,9.43
2022-10-22T03:23:14.297Z,9.20
2022-10-22T03:23:37.227Z,8.10
2022-10-22T03:24:01.525Z,9.63
2022-10-22T03:24:28.676Z,8.98
2022-10-22T03:24:55.459Z,7.35
2022-10-22T03:25:24.308Z,8.30
2022-10-22T03:25:48.392Z,6.88
2022-10-22T03:26:12.104Z,6.13
2022-10-22T03:26:34.573Z,7.28
2022-10-22T03:26:56.518Z,7.95
2022-10-22T03:27:21.747Z,9.07
2022-10-22T03:27:43.848Z,8.07
2022-10-22T03:28:08.835Z,6.93
2022-10-22T03:28:30.643Z,8.73
2022-10-22T03:28:53.561Z,7.82
2022-10-22T03:29:17.128Z,7.80
2022-10-22T03:29:41.663Z,9.02
2022-10-22T03:30:04.576Z,8.57
2022-10-22T03:30:26.310Z,8.23
2022-10-22T03:30:48.013Z,8.52
2022-10-22T03:31:09.730Z,8.55
2022-10-22T03:31:32.805Z,9.63
2022-10-22T03:31:55.378Z,6.25
2022-10-22T03:32:17.234Z,7.78
2022-10-22T03:32:39.044Z,8.70
2022-10-22T03:33:00.813Z,8.60
2022-10-22T03:33:22.542Z,8.85
2022-10-22T03:33:44.342Z,7.72
2022-10-22T03:34:07.193Z,7.47
2022-10-22T03:34:28.958Z,7.75
2022-10-22T03:34:50.745Z,8.30
2022-10-22T03:35:12.706Z,8.95
2022-10-22T03:35:43.647Z,7.25
2022-10-22T03:36:07.217Z,7.00
2022-10-22T03:36:29.196Z,8.48
2022-10-22T03:36:52.536Z,8.55
2022-10-22T03:37:14.414Z,7.47
2022-10-22T03:37:37.198Z,7.57
2022-10-22T03:38:01.392Z,9.30
2022-10-22T03:38:23.331Z,8.88
2022-10-22T03:38:45.503Z,8.20
2022-10-22T03:39:07.809Z,6.95
2022-10-22T03:39:32.014Z,7.68
2022-10-22T03:39:55.067Z,10.90
2022-10-22T03:40:17.429Z,9.18
2022-10-22T03:40:40.429Z,10.05
2022-10-22T03:41:02.217Z,8.77
2022-10-22T03:41:25.014Z,7.03
2022-10-22T03:41:48.702Z,7.85
2022-10-22T03:42:10.717Z,8.32
2022-10-22T03:42:32.667Z,7.03
2022-10-22T03:42:55.426Z,6.88
2022-10-22T03:43:17.519Z,7.53
2022-10-22T03:43:40.871Z,8.68
2022-10-22T03:44:04.484Z,7.60
2022-10-22T03:44:27.525Z,7.03
2022-10-22T03:44:49.639Z,9.15
2022-10-22T03:45:11.678Z,9.73
2022-10-22T03:45:33.495Z,9.35
2022-10-22T03:45:55.644Z,8.60
2022-10-22T03:46:20.909Z,7.55
2022-10-22T03:46:43.335Z,7.20
2022-10-22T03:47:05.277Z,7.78
2022-10-22T03:47:30.902Z,7.78
2022-10-22T03:47:52.616Z,7.68
2022-10-22T03:48:14.458Z,8.10
2022-10-22T03:48:36.162Z,6.82
2022-10-22T03:48:57.954Z,8.40
2022-10-22T03:49:20.532Z,8.93
2022-10-22T03:49:42.242Z,10.48
2022-10-22T03:50:05.752Z,7.65
2022-10-22T03:50:27.506Z,8.45
2022-10-22T03:50:49.757Z,7.07
2022-10-22T03:51:12.412Z,7.10
2022-10-22T03:51:34.218Z,6.82
2022-10-22T03:51:58.834Z,7.05
2022-10-22T03:52:20.554Z,7.60
2022-10-22T03:52:42.332Z,7.45
2022-10-22T03:53:04.597Z,7.75
2022-10-22T03:53:26.317Z,8.63
2022-10-22T03:53:48.017Z,7.75
2022-10-22T03:54:09.818Z,8.68
2022-10-22T03:54:31.594Z,7.43
2022-10-22T03:54:53.393Z,7.28
2022-10-22T03:55:15.118Z,8.63
2022-10-22T03:55:38.283Z,7.53
2022-10-22T03:56:00.023Z,9.00
2022-10-22T03:56:21.868Z,7.90
2022-10-22T03:56:43.651Z,8.40
2022-10-22T03:57:06.364Z,7.78
2022-10-22T03:57:28.342Z,9.57
2022-10-22T03:57:50.156Z,10.38
2022-10-22T03:58:12.295Z,8.15
2022-10-22T03:58:34.026Z,8.35
2022-10-22T03:59:01.345Z,8.27
2022-10-22T03:59:23.095Z,8.13
2022-10-22T03:59:46.479Z,8.35
2022-10-22T04:00:09.140Z,7.82
2022-10-22T04:00:30.907Z,10.30
2022-10-22T04:00:52.671Z,6.82
2022-10-22T04:01:16.387Z,6.35
2022-10-22T04:01:38.213Z,8.52
2022-10-22T04:01:59.928Z,7.95
2022-10-22T04:02:21.925Z,8.07
2022-10-22T04:02:43.684Z,7.00
2022-10-22T04:03:05.451Z,7.68
2022-10-22T04:03:27.125Z,6.65
2022-10-22T04:03:48.862Z,7.35
2022-10-22T04:04:10.636Z,10.90
2022-10-22T04:04:32.392Z,8.15
2022-10-22T04:04:55.141Z,8.90
2022-10-22T04:05:16.965Z,6.80
2022-10-22T04:05:38.695Z,7.70
2022-10-22T04:06:11.611Z,7.93
2022-10-22T04:06:33.332Z,7.32
2022-10-22T04:06:55.085Z,8.60
2022-10-22T04:07:16.883Z,8.90
2022-10-22T04:07:38.827Z,10.10
2022-10-22T04:08:01.010Z,9.40
2022-10-22T04:08:22.745Z,8.93
2022-10-22T04:08:45.512Z,7.05
2022-10-22T04:09:07.509Z,6.63
2022-10-22T04:09:32.667Z,7.65
2022-10-22T04:09:54.390Z,6.63
2022-10-22T04:10:17.409Z,6.25
2022-10-22T04:10:40.054Z,6.68
2022-10-22T04:11:01.996Z,7.25
2022-10-22T04:11:23.802Z,5.70
2022-10-22T04:11:45.515Z,7.78
2022-10-22T04:12:08.419Z,8.18
2022-10-22T04:12:30.186Z,8.65
2022-10-22T04:12:52.024Z,6.93
2022-10-22T04:13:13.821Z,7.25
2022-10-22T04:13:35.775Z,7.85
2022-10-22T04:13:57.528Z,7.47
2022-10-22T04:14:19.297Z,7.93
2022-10-22T04:14:41.064Z,9.90
2022-10-22T04:15:03.886Z,8.18
2022-10-22T04:15:28.113Z,9.60
2022-10-22T04:15:51.887Z,8.55
2022-10-22T04:16:14.889Z,7.13
2022-10-22T04:16:36.701Z,8.48
2022-10-22T04:16:58.420Z,7.75
2022-10-22T04:17:20.145Z,6.63
2022-10-22T04:17:42.227Z,7.85
2022-10-22T04:18:04.247Z,11.77
2022-10-22T04:18:26.023Z,7.35
2022-10-22T04:18:49.394Z,5.97
2022-10-22T04:19:11.179Z,6.35
2022-10-22T04:19:33.199Z,7.38
2022-10-22T04:19:54.927Z,7.90
2022-10-22T04:20:16.755Z,7.55
2022-10-22T04:20:38.483Z,8.93
2022-10-22T04:21:00.257Z,8.27
2022-10-22T04:21:22.041Z,7.50
2022-10-22T04:21:46.423Z,6.03
2022-10-22T04:22:08.390Z,6.38
2022-10-22T04:22:32.878Z,9.02
2022-10-22T04:22:54.647Z,8.45
2022-10-22T04:23:16.364Z,7.13
2022-10-22T04:23:38.632Z,7.68
2022-10-22T04:24:01.511Z,8.00
2022-10-22T04:24:23.238Z,7.43
2022-10-22T04:24:45.030Z,7.50
2022-10-22T04:25:06.949Z,5.95
2022-10-22T04:25:29.123Z,7.28
2022-10-22T04:25:50.856Z,8.95
2022-10-22T04:26:12.693Z,7.78
2022-10-22T04:26:34.476Z,8.50
2022-10-22T04:26:56.392Z,9.45
2022-10-22T04:27:18.134Z,8.25
2022-10-22T04:27:40.012Z,7.65
2022-10-22T04:28:02.052Z,8.55
2022-10-22T04:28:23.808Z,8.68
2022-10-22T04:28:46.843Z,7.22
2022-10-22T04:29:11.950Z,8.70
2022-10-22T04:29:37.035Z,7.13
2022-10-22T04:29:58.900Z,9.48
2022-10-22T04:30:20.784Z,9.57
2022-10-22T04:30:43.338Z,7.95
2022-10-22T04:31:13.345Z,7.85
2022-10-22T04:31:37.432Z,8.40
2022-10-22T04:32:01.618Z,6.75
2022-10-22T04:32:27.001Z,6.70
2022-10-22T04:32:51.516Z,10.07
2022-10-22T04:33:13.237Z,9.10
2022-10-22T04:33:35.070Z,7.18
2022-10-22T04:33:59.092Z,6.88
2022-10-22T04:34:20.826Z,6.82
2022-10-22T04:34:43.335Z,7.38
2022-10-22T04:35:05.441Z,8.48
2022-10-22T04:35:27.210Z,8.00
2022-10-22T04:35:49.204Z,8.38
2022-10-22T04:36:18.745Z,8.02
2022-10-22T04:36:40.577Z,10.07
2022-10-22T04:37:03.222Z,10.35
2022-10-22T04:37:24.963Z,8.25
2022-10-22T04:37:46.729Z,8.48
2022-10-22T04:38:09.735Z,6.82
2022-10-22T04:38:31.446Z,7.90
2022-10-22T04:38:55.515Z,9.00
2022-10-22T04:39:17.297Z,10.82
2022-10-22T04:39:38.996Z,9.23
2022-10-22T04:40:00.749Z,12.38
2022-10-22T04:40:22.759Z,8.30
2022-10-22T04:40:44.493Z,7.38
2022-10-22T04:41:18.855Z,7.40
2022-10-22T04:41:40.615Z,43.00
2022-10-22T04:42:02.354Z,23.77
2022-10-22T04:42:24.973Z,15.27
2022-10-22T04:42:46.822Z,11.18
2022-10-22T04:43:08.550Z,11.23
2022-10-22T04:43:30.259Z,11.10
2022-10-22T04:43:54.248Z,9.27
2022-10-22T04:44:18.044Z,13.60
2022-10-22T04:44:40.295Z,25.02
2022-10-22T04:45:02.025Z,20.13
2022-10-22T04:45:24.600Z,15.98
2022-10-22T04:45:46.678Z,16.75
2022-10-22T04:46:09.712Z,13.02
2022-10-22T04:46:34.658Z,11.73
2022-10-22T04:46:56.407Z,9.35
2022-10-22T04:47:18.162Z,10.00
2022-10-22T04:47:40.311Z,11.00
2022-10-22T04:48:02.439Z,12.02
2022-10-22T04:48:25.329Z,15.05
2022-10-22T04:48:47.639Z,10.77
2022-10-22T04:49:09.403Z,10.10
2022-10-22T04:49:31.365Z,15.65
2022-10-22T04:49:55.175Z,16.73
2022-10-22T04:50:17.009Z,13.35
2022-10-22T04:50:38.735Z,13.40
2022-10-22T04:51:03.960Z,13.80
2022-10-22T04:51:27.113Z,23.35
2022-10-22T04:51:48.982Z,29.10
2022-10-22T04:52:12.510Z,13.43
2022-10-22T04:52:34.332Z,10.35
2022-10-22T04:52:56.062Z,13.43
2022-10-22T04:53:17.815Z,33.33
2022-10-22T04:53:42.433Z,32.10
2022-10-22T04:54:04.327Z,40.80
2022-10-22T04:54:29.061Z,42.70
2022-10-22T04:54:54.000Z,17.75
2022-10-22T04:55:15.775Z,26.85
2022-10-22T04:55:37.553Z,21.10
2022-10-22T04:56:09.607Z,10.93
2022-10-22T04:56:32.087Z,13.43
2022-10-22T04:56:53.849Z,21.98
2022-10-22T04:57:15.606Z,24.02
2022-10-22T04:57:37.455Z,17.27
2022-10-22T04:57:59.212Z,20.55
2022-10-22T04:58:21.222Z,17.25
2022-10-22T04:58:45.913Z,12.93
2022-10-22T04:59:09.202Z,10.90
2022-10-22T04:59:30.982Z,18.77
2022-10-22T04:59:52.742Z,18.50
2022-10-22T05:00:19.258Z,16.48
2022-10-22T05:00:41.104Z,12.43
2022-10-22T05:01:14.097Z,13.65
2022-10-22T05:01:43.222Z,15.05
2022-10-22T05:02:06.653Z,14.52
2022-10-22T05:02:28.482Z,13.10
2022-10-22T05:02:51.118Z,11.13
2022-10-22T05:03:12.811Z,11.05
2022-10-22T05:03:34.549Z,13.55
2022-10-22T05:03:58.216Z,12.60
2022-10-22T05:04:21.028Z,9.07
2022-10-22T05:04:44.479Z,11.27
2022-10-22T05:05:06.343Z,11.50
2022-10-22T05:05:28.099Z,9.68
2022-10-22T05:05:51.697Z,9.60
2022-10-22T05:06:14.234Z,12.45
2022-10-22T05:06:37.639Z,12.02
2022-10-22T05:06:59.685Z,10.05
2022-10-22T05:07:21.472Z,12.82
2022-10-22T05:07:43.548Z,12.23
2022-10-22T05:08:05.493Z,13.55
2022-10-22T05:08:27.237Z,16.58
2022-10-22T05:08:52.589Z,9.68
2022-10-22T05:09:18.108Z,13.30
2022-10-22T05:09:39.934Z,13.05
2022-10-22T05:10:02.338Z,21.00
2022-10-22T05:10:24.111Z,16.13
2022-10-22T05:10:46.089Z,14.98
2022-10-22T05:11:20.152Z,17.65
2022-10-22T05:11:48.438Z,14.60
2022-10-22T05:12:11.083Z,14.48
2022-10-22T05:12:32.884Z,15.48
2022-10-22T05:12:54.706Z,13.40
2022-10-22T05:13:16.599Z,12.73
2022-10-22T05:13:38.390Z,10.65
2022-10-22T05:14:02.465Z,10.90
2022-10-22T05:14:25.130Z,9.10
2022-10-22T05:14:47.085Z,8.50
2022-10-22T05:15:09.570Z,9.07
2022-10-22T05:15:31.292Z,8.27
2022-10-22T05:15:53.051Z,9.85
2022-10-22T05:16:15.168Z,10.32
2022-10-22T05:16:38.325Z,8.35
2022-10-22T05:17:01.403Z,9.60
2022-10-22T05:17:23.371Z,8.93
2022-10-22T05:17:45.228Z,8.35
2022-10-22T05:18:06.961Z,9.30
2022-10-22T05:18:28.685Z,9.23
2022-10-22T05:18:53.558Z,7.68
2022-10-22T05:19:27.589Z,7.45
2022-10-22T05:19:49.305Z,7.72
2022-10-22T05:20:11.561Z,9.23
2022-10-22T05:20:33.493Z,6.88
2022-10-22T05:20:55.244Z,7.63
2022-10-22T05:21:19.371Z,8.45
2022-10-22T05:21:41.111Z,8.70
2022-10-22T05:22:04.052Z,8.30
2022-10-22T05:22:25.911Z,8.95
2022-10-22T05:22:47.685Z,7.82
2022-10-22T05:23:09.650Z,8.10
2022-10-22T05:23:31.572Z,9.02
2022-10-22T05:23:54.989Z,8.38
2022-10-22T05:24:16.958Z,8.80
2022-10-22T05:24:38.903Z,8.43
2022-10-22T05:25:01.280Z,7.90
2022-10-22T05:25:23.095Z,8.43
2022-10-22T05:25:47.235Z,8.90
2022-10-22T05:26:11.352Z,8.88
2022-10-22T05:26:33.864Z,9.35
2022-10-22T05:26:57.410Z,11.82
2022-10-22T05:27:41.194Z,7.82
2022-10-22T05:28:03.124Z,9.25